sensor_id;sensor_type;location;lat;lon;timestamp;P1;durP1;ratioP1;P2;durP2;ratioP2
70818;SDS011;58439;51.046;13.692;2022-12-07T00:01:13;17.55;;;8.10;;
70818;SDS011;58439;51.046;13.692;2022-12-07T00:03:49;21.33;;;7.90;;
70818;SDS011;58439;51.046;13.692;2022-12-07T00:06:19;16.23;;;7.10;;
70818;SDS011;58439;51.046;13.692;2022-12-07T00:08:47;16.77;;;8.07;;
70818;SDS011;58439;51.046;13.692;2022-12-07T00:11:16;21.20;;;8.02;;
70818;SDS011;58439;51.046;13.692;2022-12-07T00:13:53;20.02;;;7.57;;
70818;SDS011;58439;51.046;13.692;2022-12-07T00:16:24;24.08;;;9.10;;
70818;SDS011;58439;51.046;13.692;2022-12-07T00:18:54;18.08;;;7.25;;
70818;SDS011;58439;51.046;13.692;2022-12-07T00:21:23;15.82;;;7.80;;
70818;SDS011;58439;51.046;13.692;2022-12-07T00:23:53;19.40;;;7.78;;
70818;SDS011;58439;51.046;13.692;2022-12-07T00:26:29;15.52;;;7.13;;
70818;SDS011;58439;51.046;13.692;2022-12-07T00:29:07;14.18;;;6.88;;
70818;SDS011;58439;51.046;13.692;2022-12-07T00:31:42;20.58;;;8.63;;
70818;SDS011;58439;51.046;13.692;2022-12-07T00:34:13;19.67;;;8.13;;
70818;SDS011;58439;51.046;13.692;2022-12-07T00:36:44;17.90;;;7.88;;
70818;SDS011;58439;51.046;13.692;2022-12-07T00:39:11;20.20;;;8.20;;
70818;SDS011;58439;51.046;13.692;2022-12-07T00:41:39;18.50;;;8.60;;
70818;SDS011;58439;51.046;13.692;2022-12-07T00:44:07;15.45;;;7.38;;
70818;SDS011;58439;51.046;13.692;2022-12-07T00:46:34;18.35;;;8.35;;
70818;SDS011;58439;51.046;13.692;2022-12-07T00:49:02;17.48;;;7.57;;
70818;SDS011;58439;51.046;13.692;2022-12-07T00:51:29;22.23;;;9.13;;
70818;SDS011;58439;51.046;13.692;2022-12-07T00:53:56;20.33;;;8.10;;
70818;SDS011;58439;51.046;13.692;2022-12-07T00:56:24;17.27;;;8.50;;
70818;SDS011;58439;51.046;13.692;2022-12-07T00:58:58;23.33;;;8.45;;
70818;SDS011;58439;51.046;13.692;2022-12-07T01:01:29;19.02;;;8.57;;
70818;SDS011;58439;51.046;13.692;2022-12-07T01:03:59;19.52;;;8.88;;
70818;SDS011;58439;51.046;13.692;2022-12-07T01:06:30;19.33;;;8.65;;
70818;SDS011;58439;51.046;13.692;2022-12-07T01:08:58;26.15;;;9.43;;
70818;SDS011;58439;51.046;13.692;2022-12-07T01:11:27;20.15;;;9.48;;
70818;SDS011;58439;51.046;13.692;2022-12-07T01:13:57;21.63;;;8.95;;
70818;SDS011;58439;51.046;13.692;2022-12-07T01:16:28;19.58;;;8.10;;
70818;SDS011;58439;51.046;13.692;2022-12-07T01:18:58;23.13;;;9.80;;
70818;SDS011;58439;51.046;13.692;2022-12-07T01:21:28;23.65;;;10.10;;
70818;SDS011;58439;51.046;13.692;2022-12-07T01:24:03;23.63;;;9.07;;
70818;SDS011;58439;51.046;13.692;2022-12-07T01:26:33;19.92;;;9.10;;
70818;SDS011;58439;51.046;13.692;2022-12-07T01:29:00;18.27;;;8.38;;
70818;SDS011;58439;51.046;13.692;2022-12-07T01:31:28;21.35;;;8.15;;
70818;SDS011;58439;51.046;13.692;2022-12-07T01:33:57;20.10;;;8.50;;
70818;SDS011;58439;51.046;13.692;2022-12-07T01:38:59;24.17;;;9.38;;
70818;SDS011;58439;51.046;13.692;2022-12-07T01:41:31;17.63;;;8.03;;
70818;SDS011;58439;51.046;13.692;2022-12-07T01:47:32;19.95;;;8.07;;
70818;SDS011;58439;51.046;13.692;2022-12-07T01:49:59;17.17;;;8.38;;
70818;SDS011;58439;51.046;13.692;2022-12-07T01:52:28;14.88;;;6.93;;
70818;SDS011;58439;51.046;13.692;2022-12-07T01:55:01;15.15;;;7.78;;
70818;SDS011;58439;51.046;13.692;2022-12-07T01:57:36;15.98;;;9.00;;
70818;SDS011;58439;51.046;13.692;2022-12-07T02:00:10;15.48;;;7.35;;
70818;SDS011;58439;51.046;13.692;2022-12-07T02:02:43;17.30;;;7.97;;
70818;SDS011;58439;51.046;13.692;2022-12-07T02:05:45;15.23;;;6.70;;
70818;SDS011;58439;51.046;13.692;2022-12-07T02:08:14;19.23;;;7.13;;
70818;SDS011;58439;51.046;13.692;2022-12-07T02:10:44;14.48;;;7.07;;
70818;SDS011;58439;51.046;13.692;2022-12-07T02:13:12;14.25;;;6.38;;
70818;SDS011;58439;51.046;13.692;2022-12-07T02:21:58;9.60;;;4.63;;
70818;SDS011;58439;51.046;13.692;2022-12-07T02:29:23;12.32;;;5.60;;
70818;SDS011;58439;51.046;13.692;2022-12-07T02:32:42;15.13;;;6.10;;
70818;SDS011;58439;51.046;13.692;2022-12-07T02:41:51;13.85;;;6.55;;
70818;SDS011;58439;51.046;13.692;2022-12-07T02:44:25;14.98;;;7.50;;
70818;SDS011;58439;51.046;13.692;2022-12-07T02:46:56;16.70;;;8.00;;
70818;SDS011;58439;51.046;13.692;2022-12-07T02:49:31;16.40;;;7.68;;
70818;SDS011;58439;51.046;13.692;2022-12-07T02:52:00;18.58;;;8.52;;
70818;SDS011;58439;51.046;13.692;2022-12-07T02:54:27;18.92;;;9.00;;
70818;SDS011;58439;51.046;13.692;2022-12-07T02:57:16;16.55;;;7.95;;
70818;SDS011;58439;51.046;13.692;2022-12-07T03:00:18;15.73;;;7.93;;
70818;SDS011;58439;51.046;13.692;2022-12-07T03:02:52;17.20;;;8.02;;
70818;SDS011;58439;51.046;13.692;2022-12-07T03:05:57;17.67;;;7.88;;
70818;SDS011;58439;51.046;13.692;2022-12-07T03:09:14;20.80;;;9.20;;
70818;SDS011;58439;51.046;13.692;2022-12-07T03:12:16;16.13;;;8.13;;
70818;SDS011;58439;51.046;13.692;2022-12-07T03:14:55;21.00;;;9.30;;
70818;SDS011;58439;51.046;13.692;2022-12-07T03:17:42;23.30;;;9.38;;
70818;SDS011;58439;51.046;13.692;2022-12-07T03:20:13;21.23;;;9.25;;
70818;SDS011;58439;51.046;13.692;2022-12-07T03:22:45;23.23;;;10.02;;
70818;SDS011;58439;51.046;13.692;2022-12-07T03:25:14;18.92;;;9.20;;
70818;SDS011;58439;51.046;13.692;2022-12-07T03:30:23;20.60;;;9.45;;
70818;SDS011;58439;51.046;13.692;2022-12-07T03:32:59;22.90;;;9.93;;
70818;SDS011;58439;51.046;13.692;2022-12-07T03:35:57;22.10;;;8.82;;
70818;SDS011;58439;51.046;13.692;2022-12-07T03:38:34;26.02;;;10.30;;
70818;SDS011;58439;51.046;13.692;2022-12-07T03:41:35;19.85;;;8.90;;
70818;SDS011;58439;51.046;13.692;2022-12-07T03:44:10;25.60;;;11.07;;
70818;SDS011;58439;51.046;13.692;2022-12-07T03:55:14;20.92;;;8.70;;
70818;SDS011;58439;51.046;13.692;2022-12-07T03:57:49;24.65;;;10.32;;
70818;SDS011;58439;51.046;13.692;2022-12-07T04:00:23;18.08;;;8.23;;
70818;SDS011;58439;51.046;13.692;2022-12-07T04:02:53;20.85;;;8.43;;
70818;SDS011;58439;51.046;13.692;2022-12-07T04:05:22;19.33;;;8.27;;
70818;SDS011;58439;51.046;13.692;2022-12-07T04:07:50;22.95;;;9.35;;
70818;SDS011;58439;51.046;13.692;2022-12-07T04:10:17;22.17;;;9.30;;
70818;SDS011;58439;51.046;13.692;2022-12-07T04:12:45;20.77;;;9.13;;
70818;SDS011;58439;51.046;13.692;2022-12-07T04:15:12;19.60;;;8.57;;
70818;SDS011;58439;51.046;13.692;2022-12-07T04:17:39;19.30;;;8.93;;
70818;SDS011;58439;51.046;13.692;2022-12-07T04:20:07;26.42;;;9.63;;
70818;SDS011;58439;51.046;13.692;2022-12-07T04:22:35;20.38;;;9.30;;
70818;SDS011;58439;51.046;13.692;2022-12-07T04:25:03;19.02;;;9.32;;
70818;SDS011;58439;51.046;13.692;2022-12-07T04:27:30;18.98;;;9.23;;
70818;SDS011;58439;51.046;13.692;2022-12-07T04:29:58;21.02;;;8.82;;
70818;SDS011;58439;51.046;13.692;2022-12-07T04:32:25;20.60;;;7.70;;
70818;SDS011;58439;51.046;13.692;2022-12-07T04:34:52;20.02;;;8.07;;
70818;SDS011;58439;51.046;13.692;2022-12-07T04:37:21;20.67;;;8.70;;
70818;SDS011;58439;51.046;13.692;2022-12-07T04:39:49;18.65;;;8.35;;
70818;SDS011;58439;51.046;13.692;2022-12-07T04:42:17;19.88;;;8.13;;
70818;SDS011;58439;51.046;13.692;2022-12-07T04:44:44;22.02;;;8.63;;
70818;SDS011;58439;51.046;13.692;2022-12-07T04:47:11;20.50;;;8.90;;
70818;SDS011;58439;51.046;13.692;2022-12-07T04:49:38;38.90;;;7.20;;
70818;SDS011;58439;51.046;13.692;2022-12-07T04:52:05;16.88;;;8.35;;
70818;SDS011;58439;51.046;13.692;2022-12-07T04:54:32;16.98;;;7.50;;
70818;SDS011;58439;51.046;13.692;2022-12-07T04:56:59;16.58;;;7.82;;
70818;SDS011;58439;51.046;13.692;2022-12-07T04:59:27;19.90;;;7.93;;
70818;SDS011;58439;51.046;13.692;2022-12-07T05:01:54;21.08;;;9.15;;
70818;SDS011;58439;51.046;13.692;2022-12-07T05:04:21;21.77;;;9.50;;
70818;SDS011;58439;51.046;13.692;2022-12-07T05:06:48;20.45;;;8.43;;
70818;SDS011;58439;51.046;13.692;2022-12-07T05:09:15;21.55;;;8.82;;
70818;SDS011;58439;51.046;13.692;2022-12-07T05:11:42;22.88;;;9.32;;
70818;SDS011;58439;51.046;13.692;2022-12-07T05:14:13;17.63;;;7.90;;
70818;SDS011;58439;51.046;13.692;2022-12-07T05:16:47;16.13;;;7.28;;
70818;SDS011;58439;51.046;13.692;2022-12-07T05:19:17;18.33;;;7.93;;
70818;SDS011;58439;51.046;13.692;2022-12-07T05:21:46;21.30;;;7.93;;
70818;SDS011;58439;51.046;13.692;2022-12-07T05:24:14;18.95;;;8.13;;
70818;SDS011;58439;51.046;13.692;2022-12-07T05:26:43;20.20;;;7.72;;
70818;SDS011;58439;51.046;13.692;2022-12-07T05:29:11;15.18;;;6.85;;
70818;SDS011;58439;51.046;13.692;2022-12-07T05:31:44;11.63;;;5.38;;
70818;SDS011;58439;51.046;13.692;2022-12-07T05:34:12;16.27;;;7.30;;
70818;SDS011;58439;51.046;13.692;2022-12-07T05:36:39;14.07;;;6.35;;
70818;SDS011;58439;51.046;13.692;2022-12-07T05:39:07;10.50;;;4.90;;
70818;SDS011;58439;51.046;13.692;2022-12-07T05:41:36;11.63;;;5.32;;
70818;SDS011;58439;51.046;13.692;2022-12-07T05:44:21;11.75;;;5.55;;
70818;SDS011;58439;51.046;13.692;2022-12-07T05:46:49;16.60;;;5.63;;
70818;SDS011;58439;51.046;13.692;2022-12-07T05:49:16;13.52;;;6.45;;
70818;SDS011;58439;51.046;13.692;2022-12-07T05:51:43;11.95;;;4.75;;
70818;SDS011;58439;51.046;13.692;2022-12-07T05:54:13;10.82;;;5.05;;
70818;SDS011;58439;51.046;13.692;2022-12-07T05:56:40;10.18;;;4.70;;
70818;SDS011;58439;51.046;13.692;2022-12-07T05:59:09;10.65;;;6.43;;
70818;SDS011;58439;51.046;13.692;2022-12-07T06:01:54;9.57;;;4.82;;
70818;SDS011;58439;51.046;13.692;2022-12-07T06:04:31;8.90;;;4.82;;
70818;SDS011;58439;51.046;13.692;2022-12-07T06:07:02;10.23;;;5.50;;
70818;SDS011;58439;51.046;13.692;2022-12-07T06:09:30;11.32;;;4.82;;
70818;SDS011;58439;51.046;13.692;2022-12-07T06:11:58;11.93;;;5.30;;
70818;SDS011;58439;51.046;13.692;2022-12-07T06:14:45;11.10;;;4.60;;
70818;SDS011;58439;51.046;13.692;2022-12-07T06:17:12;8.77;;;4.53;;
70818;SDS011;58439;51.046;13.692;2022-12-07T06:19:40;9.27;;;4.47;;
70818;SDS011;58439;51.046;13.692;2022-12-07T06:22:11;9.98;;;3.95;;
70818;SDS011;58439;51.046;13.692;2022-12-07T06:24:40;7.78;;;4.85;;
70818;SDS011;58439;51.046;13.692;2022-12-07T06:27:07;10.70;;;4.78;;
70818;SDS011;58439;51.046;13.692;2022-12-07T06:29:35;8.98;;;4.45;;
70818;SDS011;58439;51.046;13.692;2022-12-07T06:32:03;12.93;;;4.43;;
70818;SDS011;58439;51.046;13.692;2022-12-07T06:34:31;8.68;;;4.18;;
70818;SDS011;58439;51.046;13.692;2022-12-07T06:36:58;9.63;;;4.28;;
70818;SDS011;58439;51.046;13.692;2022-12-07T06:39:26;16.63;;;4.95;;
70818;SDS011;58439;51.046;13.692;2022-12-07T06:41:55;9.00;;;4.15;;
70818;SDS011;58439;51.046;13.692;2022-12-07T06:44:24;8.07;;;4.80;;
70818;SDS011;58439;51.046;13.692;2022-12-07T06:46:52;8.70;;;4.75;;
70818;SDS011;58439;51.046;13.692;2022-12-07T06:49:39;5.00;;;3.40;;
70818;SDS011;58439;51.046;13.692;2022-12-07T06:52:06;6.35;;;3.17;;
70818;SDS011;58439;51.046;13.692;2022-12-07T06:54:34;9.60;;;4.55;;
70818;SDS011;58439;51.046;13.692;2022-12-07T06:57:01;11.20;;;5.45;;
70818;SDS011;58439;51.046;13.692;2022-12-07T06:59:28;8.85;;;3.75;;
70818;SDS011;58439;51.046;13.692;2022-12-07T07:01:55;7.82;;;3.85;;
70818;SDS011;58439;51.046;13.692;2022-12-07T07:04:23;6.78;;;3.58;;
70818;SDS011;58439;51.046;13.692;2022-12-07T07:06:51;12.55;;;4.88;;
70818;SDS011;58439;51.046;13.692;2022-12-07T07:09:25;6.90;;;3.00;;
70818;SDS011;58439;51.046;13.692;2022-12-07T07:12:01;7.82;;;3.50;;
70818;SDS011;58439;51.046;13.692;2022-12-07T07:14:28;6.47;;;2.92;;
70818;SDS011;58439;51.046;13.692;2022-12-07T07:16:56;8.52;;;4.05;;
70818;SDS011;58439;51.046;13.692;2022-12-07T07:19:23;7.47;;;4.38;;
70818;SDS011;58439;51.046;13.692;2022-12-07T07:21:50;5.57;;;3.30;;
70818;SDS011;58439;51.046;13.692;2022-12-07T07:24:18;6.45;;;3.78;;
70818;SDS011;58439;51.046;13.692;2022-12-07T07:26:45;6.25;;;3.28;;
70818;SDS011;58439;51.046;13.692;2022-12-07T07:29:12;6.97;;;2.58;;
70818;SDS011;58439;51.046;13.692;2022-12-07T07:31:40;5.63;;;3.22;;
70818;SDS011;58439;51.046;13.692;2022-12-07T07:34:07;8.63;;;4.38;;
70818;SDS011;58439;51.046;13.692;2022-12-07T07:36:34;7.75;;;3.08;;
70818;SDS011;58439;51.046;13.692;2022-12-07T07:39:01;3.65;;;2.08;;
70818;SDS011;58439;51.046;13.692;2022-12-07T07:41:29;7.80;;;3.15;;
70818;SDS011;58439;51.046;13.692;2022-12-07T07:44:03;11.15;;;4.55;;
70818;SDS011;58439;51.046;13.692;2022-12-07T07:46:30;9.40;;;3.95;;
70818;SDS011;58439;51.046;13.692;2022-12-07T07:49:14;7.32;;;2.63;;
70818;SDS011;58439;51.046;13.692;2022-12-07T07:56:40;8.60;;;4.65;;
70818;SDS011;58439;51.046;13.692;2022-12-07T08:04:08;11.98;;;6.18;;
70818;SDS011;58439;51.046;13.692;2022-12-07T08:06:48;10.80;;;5.95;;
70818;SDS011;58439;51.046;13.692;2022-12-07T08:09:15;11.60;;;6.22;;
70818;SDS011;58439;51.046;13.692;2022-12-07T08:11:42;10.45;;;6.55;;
70818;SDS011;58439;51.046;13.692;2022-12-07T08:14:10;13.18;;;6.80;;
70818;SDS011;58439;51.046;13.692;2022-12-07T08:17:07;13.23;;;6.75;;
70818;SDS011;58439;51.046;13.692;2022-12-07T08:19:37;14.02;;;7.22;;
70818;SDS011;58439;51.046;13.692;2022-12-07T08:22:57;13.68;;;7.25;;
70818;SDS011;58439;51.046;13.692;2022-12-07T08:40:19;17.17;;;8.15;;
70818;SDS011;58439;51.046;13.692;2022-12-07T08:42:51;17.60;;;7.70;;
70818;SDS011;58439;51.046;13.692;2022-12-07T08:45:19;23.17;;;10.63;;
70818;SDS011;58439;51.046;13.692;2022-12-07T08:48:03;31.85;;;12.40;;
70818;SDS011;58439;51.046;13.692;2022-12-07T08:50:39;14.00;;;7.13;;
70818;SDS011;58439;51.046;13.692;2022-12-07T08:53:15;16.17;;;7.72;;
70818;SDS011;58439;51.046;13.692;2022-12-07T08:56:22;9.43;;;4.47;;
70818;SDS011;58439;51.046;13.692;2022-12-07T08:59:00;17.77;;;9.68;;
70818;SDS011;58439;51.046;13.692;2022-12-07T09:01:31;14.65;;;6.18;;
70818;SDS011;58439;51.046;13.692;2022-12-07T09:04:01;17.33;;;7.10;;
70818;SDS011;58439;51.046;13.692;2022-12-07T09:07:06;28.92;;;13.80;;
70818;SDS011;58439;51.046;13.692;2022-12-07T09:09:33;13.23;;;6.15;;
70818;SDS011;58439;51.046;13.692;2022-12-07T09:12:24;14.32;;;6.15;;
70818;SDS011;58439;51.046;13.692;2022-12-07T09:14:51;22.23;;;9.75;;
70818;SDS011;58439;51.046;13.692;2022-12-07T09:17:18;34.03;;;13.55;;
70818;SDS011;58439;51.046;13.692;2022-12-07T09:19:46;14.90;;;5.30;;
70818;SDS011;58439;51.046;13.692;2022-12-07T09:22:14;14.65;;;7.22;;
70818;SDS011;58439;51.046;13.692;2022-12-07T09:24:42;10.60;;;4.70;;
70818;SDS011;58439;51.046;13.692;2022-12-07T09:27:12;13.07;;;6.43;;
70818;SDS011;58439;51.046;13.692;2022-12-07T09:29:39;10.95;;;5.30;;
70818;SDS011;58439;51.046;13.692;2022-12-07T09:32:07;10.88;;;5.20;;
70818;SDS011;58439;51.046;13.692;2022-12-07T09:34:37;15.57;;;6.63;;
70818;SDS011;58439;51.046;13.692;2022-12-07T09:37:05;10.50;;;5.47;;
70818;SDS011;58439;51.046;13.692;2022-12-07T09:39:33;29.80;;;10.55;;
70818;SDS011;58439;51.046;13.692;2022-12-07T09:45:01;18.10;;;5.32;;
70818;SDS011;58439;51.046;13.692;2022-12-07T09:47:47;11.57;;;4.68;;
70818;SDS011;58439;51.046;13.692;2022-12-07T09:51:26;17.45;;;6.22;;
70818;SDS011;58439;51.046;13.692;2022-12-07T09:55:33;14.77;;;3.35;;
70818;SDS011;58439;51.046;13.692;2022-12-07T09:59:58;20.02;;;6.97;;
70818;SDS011;58439;51.046;13.692;2022-12-07T10:06:17;10.55;;;4.75;;
70818;SDS011;58439;51.046;13.692;2022-12-07T10:08:44;9.05;;;5.10;;
70818;SDS011;58439;51.046;13.692;2022-12-07T10:11:12;11.98;;;4.28;;
70818;SDS011;58439;51.046;13.692;2022-12-07T10:13:45;6.45;;;2.70;;
70818;SDS011;58439;51.046;13.692;2022-12-07T10:19:18;8.38;;;4.05;;
70818;SDS011;58439;51.046;13.692;2022-12-07T10:22:11;9.88;;;2.97;;
70818;SDS011;58439;51.046;13.692;2022-12-07T10:24:46;4.85;;;2.50;;
70818;SDS011;58439;51.046;13.692;2022-12-07T10:27:29;11.45;;;5.45;;
70818;SDS011;58439;51.046;13.692;2022-12-07T10:29:59;9.23;;;3.17;;
70818;SDS011;58439;51.046;13.692;2022-12-07T10:32:34;15.52;;;6.18;;
70818;SDS011;58439;51.046;13.692;2022-12-07T10:35:37;13.18;;;5.85;;
70818;SDS011;58439;51.046;13.692;2022-12-07T10:37:59;13.00;;;4.57;;
70818;SDS011;58439;51.046;13.692;2022-12-07T10:41:02;11.52;;;4.20;;
70818;SDS011;58439;51.046;13.692;2022-12-07T10:43:33;11.57;;;4.80;;
70818;SDS011;58439;51.046;13.692;2022-12-07T10:49:33;19.50;;;5.18;;
70818;SDS011;58439;51.046;13.692;2022-12-07T10:52:39;8.73;;;4.15;;
70818;SDS011;58439;51.046;13.692;2022-12-07T10:55:56;10.68;;;4.13;;
70818;SDS011;58439;51.046;13.692;2022-12-07T10:59:18;10.82;;;5.18;;
70818;SDS011;58439;51.046;13.692;2022-12-07T11:06:02;14.40;;;5.10;;
70818;SDS011;58439;51.046;13.692;2022-12-07T11:18:44;12.23;;;6.15;;
70818;SDS011;58439;51.046;13.692;2022-12-07T11:21:56;8.10;;;3.50;;
70818;SDS011;58439;51.046;13.692;2022-12-07T11:28:13;9.57;;;4.28;;
70818;SDS011;58439;51.046;13.692;2022-12-07T11:34:36;10.63;;;4.57;;
70818;SDS011;58439;51.046;13.692;2022-12-07T11:37:27;11.98;;;4.32;;
70818;SDS011;58439;51.046;13.692;2022-12-07T11:43:30;34.00;;;14.77;;
70818;SDS011;58439;51.046;13.692;2022-12-07T11:46:09;11.52;;;5.20;;
70818;SDS011;58439;51.046;13.692;2022-12-07T11:51:39;12.55;;;5.53;;
70818;SDS011;58439;51.046;13.692;2022-12-07T11:54:17;11.73;;;4.60;;
70818;SDS011;58439;51.046;13.692;2022-12-07T11:57:02;12.75;;;5.55;;
70818;SDS011;58439;51.046;13.692;2022-12-07T12:00:24;13.30;;;5.38;;
70818;SDS011;58439;51.046;13.692;2022-12-07T12:02:59;29.75;;;11.20;;
70818;SDS011;58439;51.046;13.692;2022-12-07T12:05:38;7.20;;;3.55;;
70818;SDS011;58439;51.046;13.692;2022-12-07T12:08:17;15.38;;;4.88;;
70818;SDS011;58439;51.046;13.692;2022-12-07T12:11:27;11.90;;;5.13;;
70818;SDS011;58439;51.046;13.692;2022-12-07T12:18:32;13.43;;;5.03;;
70818;SDS011;58439;51.046;13.692;2022-12-07T12:26:02;7.03;;;3.17;;
70818;SDS011;58439;51.046;13.692;2022-12-07T12:36:52;7.13;;;3.25;;
70818;SDS011;58439;51.046;13.692;2022-12-07T13:24:14;7.75;;;2.67;;
70818;SDS011;58439;51.046;13.692;2022-12-07T13:38:59;5.43;;;2.40;;
70818;SDS011;58439;51.046;13.692;2022-12-07T13:41:55;16.15;;;5.05;;
70818;SDS011;58439;51.046;13.692;2022-12-07T13:44:59;6.03;;;3.05;;
70818;SDS011;58439;51.046;13.692;2022-12-07T14:27:36;9.40;;;4.45;;
70818;SDS011;58439;51.046;13.692;2022-12-07T14:30:04;9.32;;;4.80;;
70818;SDS011;58439;51.046;13.692;2022-12-07T14:32:35;8.50;;;4.72;;
70818;SDS011;58439;51.046;13.692;2022-12-07T14:35:10;12.25;;;5.82;;
70818;SDS011;58439;51.046;13.692;2022-12-07T14:37:41;11.85;;;5.47;;
70818;SDS011;58439;51.046;13.692;2022-12-07T14:40:15;106.47;;;28.48;;
70818;SDS011;58439;51.046;13.692;2022-12-07T14:42:50;13.07;;;6.03;;
70818;SDS011;58439;51.046;13.692;2022-12-07T14:45:23;13.57;;;5.07;;
70818;SDS011;58439;51.046;13.692;2022-12-07T14:47:58;11.70;;;4.70;;
70818;SDS011;58439;51.046;13.692;2022-12-07T14:50:51;7.95;;;3.83;;
70818;SDS011;58439;51.046;13.692;2022-12-07T14:53:46;6.57;;;2.97;;
70818;SDS011;58439;51.046;13.692;2022-12-07T14:57:03;8.13;;;2.97;;
70818;SDS011;58439;51.046;13.692;2022-12-07T15:00:28;7.97;;;3.00;;
70818;SDS011;58439;51.046;13.692;2022-12-07T15:07:21;5.80;;;2.75;;
70818;SDS011;58439;51.046;13.692;2022-12-07T15:11:04;8.50;;;3.35;;
70818;SDS011;58439;51.046;13.692;2022-12-07T15:14:01;5.75;;;2.60;;
70818;SDS011;58439;51.046;13.692;2022-12-07T15:16:35;6.57;;;3.10;;
70818;SDS011;58439;51.046;13.692;2022-12-07T15:22:23;6.95;;;2.50;;
70818;SDS011;58439;51.046;13.692;2022-12-07T15:25:05;4.28;;;2.10;;
70818;SDS011;58439;51.046;13.692;2022-12-07T15:27:33;7.97;;;2.83;;
70818;SDS011;58439;51.046;13.692;2022-12-07T15:30:16;4.32;;;1.85;;
70818;SDS011;58439;51.046;13.692;2022-12-07T15:32:43;5.50;;;2.25;;
70818;SDS011;58439;51.046;13.692;2022-12-07T15:35:16;6.15;;;2.15;;
70818;SDS011;58439;51.046;13.692;2022-12-07T15:37:44;9.52;;;2.50;;
70818;SDS011;58439;51.046;13.692;2022-12-07T15:40:14;5.20;;;1.38;;
70818;SDS011;58439;51.046;13.692;2022-12-07T15:42:44;5.15;;;2.03;;
70818;SDS011;58439;51.046;13.692;2022-12-07T15:45:14;8.43;;;2.30;;
70818;SDS011;58439;51.046;13.692;2022-12-07T15:47:43;4.45;;;2.50;;
70818;SDS011;58439;51.046;13.692;2022-12-07T15:51:09;4.47;;;1.98;;
70818;SDS011;58439;51.046;13.692;2022-12-07T15:53:43;6.25;;;2.20;;
70818;SDS011;58439;51.046;13.692;2022-12-07T15:56:11;4.30;;;1.90;;
70818;SDS011;58439;51.046;13.692;2022-12-07T15:58:38;5.95;;;2.10;;
70818;SDS011;58439;51.046;13.692;2022-12-07T16:01:11;6.88;;;2.30;;
70818;SDS011;58439;51.046;13.692;2022-12-07T16:03:43;9.85;;;2.80;;
70818;SDS011;58439;51.046;13.692;2022-12-07T16:06:12;8.27;;;2.80;;
70818;SDS011;58439;51.046;13.692;2022-12-07T16:08:44;7.60;;;2.83;;
70818;SDS011;58439;51.046;13.692;2022-12-07T16:11:12;12.57;;;3.33;;
70818;SDS011;58439;51.046;13.692;2022-12-07T16:13:40;8.13;;;3.00;;
70818;SDS011;58439;51.046;13.692;2022-12-07T16:16:10;8.52;;;2.85;;
70818;SDS011;58439;51.046;13.692;2022-12-07T16:18:44;7.03;;;3.03;;
70818;SDS011;58439;51.046;13.692;2022-12-07T16:25:13;3.72;;;2.00;;
70818;SDS011;58439;51.046;13.692;2022-12-07T16:32:03;12.63;;;2.28;;
70818;SDS011;58439;51.046;13.692;2022-12-07T16:34:58;5.68;;;2.10;;
70818;SDS011;58439;51.046;13.692;2022-12-07T16:37:25;3.83;;;1.90;;
70818;SDS011;58439;51.046;13.692;2022-12-07T16:39:53;4.35;;;1.85;;
70818;SDS011;58439;51.046;13.692;2022-12-07T16:42:21;7.50;;;2.30;;
70818;SDS011;58439;51.046;13.692;2022-12-07T16:48:36;9.68;;;2.42;;
70818;SDS011;58439;51.046;13.692;2022-12-07T16:51:06;3.58;;;1.83;;
70818;SDS011;58439;51.046;13.692;2022-12-07T16:53:40;5.05;;;1.70;;
70818;SDS011;58439;51.046;13.692;2022-12-07T16:56:37;5.78;;;2.40;;
70818;SDS011;58439;51.046;13.692;2022-12-07T16:59:04;4.63;;;2.05;;
70818;SDS011;58439;51.046;13.692;2022-12-07T17:01:35;5.30;;;1.95;;
70818;SDS011;58439;51.046;13.692;2022-12-07T17:04:02;6.00;;;2.22;;
70818;SDS011;58439;51.046;13.692;2022-12-07T17:06:31;6.63;;;2.33;;
70818;SDS011;58439;51.046;13.692;2022-12-07T17:08:59;4.68;;;2.05;;
70818;SDS011;58439;51.046;13.692;2022-12-07T17:11:29;9.40;;;2.70;;
70818;SDS011;58439;51.046;13.692;2022-12-07T17:14:11;4.18;;;1.85;;
70818;SDS011;58439;51.046;13.692;2022-12-07T17:16:57;8.90;;;2.55;;
70818;SDS011;58439;51.046;13.692;2022-12-07T17:19:27;7.80;;;1.35;;
70818;SDS011;58439;51.046;13.692;2022-12-07T17:21:54;5.95;;;1.80;;
70818;SDS011;58439;51.046;13.692;2022-12-07T17:24:22;7.15;;;2.00;;
70818;SDS011;58439;51.046;13.692;2022-12-07T17:43:28;8.57;;;2.55;;
70818;SDS011;58439;51.046;13.692;2022-12-07T17:58:40;9.15;;;2.70;;
70818;SDS011;58439;51.046;13.692;2022-12-07T18:01:16;7.15;;;2.75;;
70818;SDS011;58439;51.046;13.692;2022-12-07T18:09:30;8.55;;;2.70;;
70818;SDS011;58439;51.046;13.692;2022-12-07T18:12:10;6.32;;;2.47;;
70818;SDS011;58439;51.046;13.692;2022-12-07T18:23:06;4.55;;;1.88;;
70818;SDS011;58439;51.046;13.692;2022-12-07T18:30:34;8.63;;;2.05;;
70818;SDS011;58439;51.046;13.692;2022-12-07T18:33:28;5.47;;;1.75;;
70818;SDS011;58439;51.046;13.692;2022-12-07T18:35:59;9.15;;;2.30;;
70818;SDS011;58439;51.046;13.692;2022-12-07T18:38:31;5.88;;;2.00;;
70818;SDS011;58439;51.046;13.692;2022-12-07T18:41:39;7.20;;;1.85;;
70818;SDS011;58439;51.046;13.692;2022-12-07T18:57:23;3.67;;;1.73;;
70818;SDS011;58439;51.046;13.692;2022-12-07T19:00:10;3.88;;;2.03;;
70818;SDS011;58439;51.046;13.692;2022-12-07T19:02:39;3.83;;;1.67;;
70818;SDS011;58439;51.046;13.692;2022-12-07T19:05:21;3.40;;;1.83;;
70818;SDS011;58439;51.046;13.692;2022-12-07T19:08:20;5.68;;;1.73;;
70818;SDS011;58439;51.046;13.692;2022-12-07T19:10:53;10.18;;;2.08;;
70818;SDS011;58439;51.046;13.692;2022-12-07T19:15:23;10.57;;;3.28;;
70818;SDS011;58439;51.046;13.692;2022-12-07T19:18:52;8.63;;;3.20;;
70818;SDS011;58439;51.046;13.692;2022-12-07T19:22:04;5.30;;;2.38;;
70818;SDS011;58439;51.046;13.692;2022-12-07T19:24:32;6.05;;;2.53;;
70818;SDS011;58439;51.046;13.692;2022-12-07T19:31:35;6.80;;;3.00;;
70818;SDS011;58439;51.046;13.692;2022-12-07T19:36:22;7.47;;;2.77;;
70818;SDS011;58439;51.046;13.692;2022-12-07T19:38:59;10.25;;;3.20;;
70818;SDS011;58439;51.046;13.692;2022-12-07T19:41:26;5.72;;;2.90;;
70818;SDS011;58439;51.046;13.692;2022-12-07T19:44:44;10.18;;;3.70;;
70818;SDS011;58439;51.046;13.692;2022-12-07T19:54:51;6.55;;;2.67;;
70818;SDS011;58439;51.046;13.692;2022-12-07T19:57:32;11.95;;;3.35;;
70818;SDS011;58439;51.046;13.692;2022-12-07T20:00:02;7.57;;;2.83;;
70818;SDS011;58439;51.046;13.692;2022-12-07T20:02:32;9.10;;;4.15;;
70818;SDS011;58439;51.046;13.692;2022-12-07T20:05:45;4.63;;;2.53;;
70818;SDS011;58439;51.046;13.692;2022-12-07T20:08:15;8.90;;;2.95;;
70818;SDS011;58439;51.046;13.692;2022-12-07T20:11:03;9.23;;;3.97;;
70818;SDS011;58439;51.046;13.692;2022-12-07T20:13:51;9.27;;;2.38;;
70818;SDS011;58439;51.046;13.692;2022-12-07T20:16:19;8.52;;;3.53;;
70818;SDS011;58439;51.046;13.692;2022-12-07T20:18:47;14.10;;;3.15;;
70818;SDS011;58439;51.046;13.692;2022-12-07T20:21:23;7.35;;;2.88;;
70818;SDS011;58439;51.046;13.692;2022-12-07T20:23:52;5.60;;;3.30;;
70818;SDS011;58439;51.046;13.692;2022-12-07T20:26:20;6.60;;;2.60;;
70818;SDS011;58439;51.046;13.692;2022-12-07T20:28:51;5.63;;;3.13;;
70818;SDS011;58439;51.046;13.692;2022-12-07T20:31:36;9.13;;;3.30;;